createdAt,value
2023-02-03T00:01:14.261Z,86.75
2023-02-03T00:04:18.684Z,86.88
2023-02-03T00:07:22.130Z,86.91
2023-02-03T00:10:27.664Z,87.23
2023-02-03T00:13:30.841Z,87.40
2023-02-03T00:16:36.165Z,87.47
2023-02-03T00:19:46.280Z,86.15
2023-02-03T00:22:49.477Z,85.37
2023-02-03T00:25:53.862Z,84.68
2023-02-03T00:28:59.965Z,83.97
2023-02-03T00:32:02.606Z,83.48
2023-02-03T00:35:06.858Z,83.37
2023-02-03T00:38:09.596Z,83.12
2023-02-03T00:41:12.618Z,82.88
2023-02-03T00:44:16.872Z,82.95
2023-02-03T00:47:21.205Z,82.86
2023-02-03T00:50:24.291Z,82.70
2023-02-03T00:53:28.459Z,82.72
2023-02-03T00:56:31.033Z,82.80
2023-02-03T00:59:35.080Z,82.63
2023-02-03T01:02:38.979Z,82.71
2023-02-03T01:05:42.390Z,82.82
2023-02-03T01:08:45.878Z,82.98
2023-02-03T01:11:50.848Z,83.25
2023-02-03T01:14:53.335Z,83.46
2023-02-03T01:17:56.016Z,83.66
2023-02-03T01:20:58.586Z,83.66
2023-02-03T01:24:01.803Z,83.44
2023-02-03T01:27:04.286Z,83.47
2023-02-03T01:30:07.817Z,83.56
2023-02-03T01:33:10.495Z,83.42
2023-02-03T01:36:14.348Z,83.19
2023-02-03T01:39:17.438Z,83.29
2023-02-03T01:42:21.907Z,83.27
2023-02-03T01:45:24.968Z,83.16
2023-02-03T01:48:28.598Z,83.04
2023-02-03T01:51:35.615Z,83.27
2023-02-03T01:54:44.089Z,83.17
2023-02-03T01:57:53.915Z,82.84
2023-02-03T02:00:59.599Z,82.63
2023-02-03T02:04:04.887Z,82.45
2023-02-03T02:07:09.386Z,82.42
2023-02-03T02:10:12.569Z,82.69
2023-02-03T02:13:18.695Z,82.77
2023-02-03T02:16:43.600Z,82.80
2023-02-03T02:19:58.800Z,83.05
2023-02-03T02:23:20.348Z,83.32
2023-02-03T02:26:50.921Z,83.49
2023-02-03T02:30:12.211Z,83.71
2023-02-03T02:33:33.506Z,83.90
2023-02-03T02:36:50.452Z,84.16
2023-02-03T02:40:20.637Z,84.26
2023-02-03T02:43:43.227Z,84.47
2023-02-03T02:47:01.092Z,84.56
2023-02-03T02:50:11.727Z,84.60
2023-02-03T02:53:18.053Z,84.42
2023-02-03T02:56:25.628Z,84.63
2023-02-03T02:59:28.512Z,84.83
2023-02-03T03:02:35.088Z,84.33
2023-02-03T03:05:39.363Z,84.45
2023-02-03T03:08:53.689Z,84.27
2023-02-03T03:12:01.672Z,83.72
2023-02-03T03:15:18.165Z,83.61
2023-02-03T03:18:39.119Z,83.87
2023-02-03T03:21:55.933Z,83.99
2023-02-03T03:25:10.714Z,84.39
2023-02-03T03:28:30.631Z,84.36
2023-02-03T03:31:33.454Z,84.27
2023-02-03T03:34:37.162Z,84.62
2023-02-03T03:38:06.145Z,84.67
2023-02-03T03:41:25.073Z,84.62
2023-02-03T03:44:39.126Z,84.66
2023-02-03T03:47:50.237Z,84.81
2023-02-03T03:51:02.420Z,84.98
2023-02-03T03:54:09.655Z,85.22
2023-02-03T03:57:18.656Z,85.33
2023-02-03T04:00:23.255Z,85.52
2023-02-03T04:03:38.868Z,85.39
2023-02-03T04:06:42.118Z,85.25
2023-02-03T04:09:45.355Z,85.32
2023-02-03T04:12:47.891Z,85.28
2023-02-03T04:15:51.303Z,85.12
2023-02-03T04:18:53.897Z,84.74
2023-02-03T04:21:58.059Z,84.44
2023-02-03T04:25:00.856Z,84.27
2023-02-03T04:28:04.491Z,83.99
2023-02-03T04:31:07.637Z,84.00
2023-02-03T04:34:15.083Z,83.65
2023-02-03T04:37:17.868Z,82.97
2023-02-03T04:40:21.480Z,82.49
2023-02-03T04:43:24.332Z,81.96
2023-02-03T04:46:26.977Z,82.01
2023-02-03T04:49:29.824Z,82.07
2023-02-03T04:52:33.209Z,82.11
2023-02-03T04:55:36.558Z,81.70
2023-02-03T04:58:39.856Z,81.02
2023-02-03T05:01:43.407Z,80.19
2023-02-03T05:04:47.124Z,79.26
2023-02-03T05:07:50.479Z,78.33
2023-02-03T05:11:01.384Z,77.14
2023-02-03T05:14:07.906Z,75.02
2023-02-03T05:17:12.184Z,72.88
2023-02-03T05:20:15.225Z,71.74
2023-02-03T05:23:18.381Z,72.71
2023-02-03T05:26:23.565Z,72.63
2023-02-03T05:29:27.559Z,72.79
2023-02-03T05:32:31.003Z,71.77
2023-02-03T05:35:35.133Z,72.22
2023-02-03T05:38:38.117Z,71.41
2023-02-03T05:41:57.200Z,71.55
2023-02-03T05:45:02.302Z,71.90
2023-02-03T05:48:17.056Z,72.14
2023-02-03T05:51:27.256Z,71.85
2023-02-03T05:54:39.062Z,72.24
2023-02-03T05:57:43.775Z,72.91
2023-02-03T06:00:48.257Z,73.05
2023-02-03T06:03:52.563Z,73.43
2023-02-03T06:06:58.005Z,73.93
2023-02-03T06:10:05.499Z,74.27
2023-02-03T06:13:24.051Z,74.74
2023-02-03T06:16:30.176Z,75.27
2023-02-03T06:19:41.011Z,75.92
2023-02-03T06:22:45.801Z,76.69
2023-02-03T06:25:57.003Z,76.91
2023-02-03T06:29:06.633Z,77.18
2023-02-03T06:32:11.173Z,77.12
2023-02-03T06:35:25.148Z,76.61
2023-02-03T06:38:29.860Z,76.23
2023-02-03T06:41:33.012Z,75.91
2023-02-03T06:44:37.037Z,75.91
2023-02-03T06:47:45.027Z,76.13
2023-02-03T06:50:55.779Z,76.69
2023-02-03T06:54:00.981Z,77.29
2023-02-03T06:57:11.592Z,77.10
2023-02-03T07:00:19.724Z,77.12
2023-02-03T07:03:25.723Z,77.49
2023-02-03T07:06:39.267Z,77.76
2023-02-03T07:09:43.954Z,77.37
2023-02-03T07:12:50.743Z,77.82
2023-02-03T07:15:55.269Z,77.72
2023-02-03T07:19:02.018Z,77.45
2023-02-03T07:22:07.042Z,77.37
2023-02-03T07:25:11.563Z,77.29
2023-02-03T07:28:19.152Z,77.19
2023-02-03T07:31:33.550Z,76.26
2023-02-03T07:34:39.806Z,75.78
2023-02-03T07:37:47.011Z,73.85
2023-02-03T07:40:59.483Z,72.77
2023-02-03T07:44:06.985Z,73.15
2023-02-03T07:47:19.946Z,73.96
2023-02-03T07:50:23.704Z,74.90
2023-02-03T07:53:36.699Z,75.45
2023-02-03T07:56:40.108Z,75.61
2023-02-03T07:59:43.794Z,75.82
2023-02-03T08:03:00.452Z,75.93
2023-02-03T08:06:09.983Z,75.97
2023-02-03T08:09:15.565Z,76.46
2023-02-03T08:12:21.044Z,76.49
2023-02-03T08:15:26.581Z,76.81
2023-02-03T08:18:32.632Z,76.86
2023-02-03T08:21:41.971Z,76.82
2023-02-03T08:24:50.293Z,76.94
2023-02-03T08:27:54.192Z,76.95
2023-02-03T08:30:59.119Z,77.15
2023-02-03T08:34:12.002Z,77.17
2023-02-03T08:37:24.995Z,77.56
2023-02-03T08:40:36.939Z,77.93
2023-02-03T08:43:48.952Z,77.87
2023-02-03T08:46:54.007Z,78.10
2023-02-03T08:50:00.243Z,78.44
2023-02-03T08:53:03.654Z,78.80
2023-02-03T08:56:11.028Z,78.95
2023-02-03T08:59:16.997Z,79.50
2023-02-03T09:02:21.819Z,79.60
2023-02-03T09:05:26.568Z,79.86
2023-02-03T09:08:39.657Z,80.45
2023-02-03T09:11:56.613Z,81.75
2023-02-03T09:15:05.172Z,83.45
2023-02-03T09:18:12.046Z,85.37
2023-02-03T09:21:36.263Z,86.59
2023-02-03T09:24:45.303Z,86.81
2023-02-03T09:27:50.268Z,88.22
2023-02-03T09:30:54.359Z,89.49
2023-02-03T09:34:03.207Z,90.57
2023-02-03T09:37:12.041Z,90.33
2023-02-03T09:40:25.646Z,91.53
2023-02-03T09:44:19.098Z,91.63
2023-02-03T09:47:35.029Z,92.30
2023-02-03T09:50:40.181Z,92.75
2023-02-03T09:53:50.456Z,92.88
2023-02-03T09:57:00.412Z,93.34
2023-02-03T10:00:25.840Z,94.34
2023-02-03T10:04:00.999Z,94.58
2023-02-03T10:07:27.711Z,94.48
2023-02-03T10:10:43.006Z,94.23
2023-02-03T10:14:23.965Z,94.84
2023-02-03T10:17:48.995Z,94.23
2023-02-03T10:21:08.031Z,94.73
2023-02-03T10:24:30.288Z,94.67
2023-02-03T10:27:35.442Z,95.21
2023-02-03T10:30:46.142Z,95.04
2023-02-03T10:34:04.010Z,95.42
2023-02-03T10:37:54.143Z,95.54
2023-02-03T10:40:58.792Z,95.81
2023-02-03T10:44:08.041Z,95.75
2023-02-03T10:47:22.095Z,95.60
2023-02-03T10:50:35.986Z,95.68
2023-02-03T10:53:42.618Z,95.66
2023-02-03T10:56:58.981Z,95.69
2023-02-03T11:00:21.906Z,95.12
2023-02-03T11:03:33.275Z,95.64
2023-02-03T11:06:59.139Z,95.44
2023-02-03T11:10:27.136Z,95.68
2023-02-03T11:13:37.013Z,96.19
2023-02-03T11:16:44.673Z,95.73
2023-02-03T11:19:53.543Z,95.68
2023-02-03T11:23:07.012Z,95.47
2023-02-03T11:26:24.028Z,95.84
2023-02-03T11:29:31.082Z,96.01
2023-02-03T11:32:43.002Z,96.87
2023-02-03T11:36:04.011Z,96.90
2023-02-03T11:39:23.010Z,97.23
2023-02-03T11:42:27.446Z,97.08
2023-02-03T11:45:53.948Z,97.09
2023-02-03T11:49:08.274Z,96.91
2023-02-03T11:52:39.015Z,97.15
2023-02-03T11:56:03.244Z,96.87
2023-02-03T11:59:28.958Z,97.14
2023-02-03T12:03:15.072Z,97.09
2023-02-03T12:07:03.148Z,96.81
2023-02-03T12:10:33.986Z,97.10
2023-02-03T12:13:59.636Z,97.39
2023-02-03T12:17:34.966Z,98.01
2023-02-03T12:20:55.261Z,97.90
2023-02-03T12:24:31.891Z,97.80
2023-02-03T12:27:53.174Z,97.72
2023-02-03T12:31:07.254Z,97.68
2023-02-03T12:34:24.136Z,97.44
2023-02-03T12:37:41.028Z,97.68
2023-02-03T12:40:55.994Z,97.60
2023-02-03T12:44:08.831Z,97.85
2023-02-03T12:47:34.862Z,97.98
2023-02-03T12:50:54.255Z,98.34
2023-02-03T12:54:25.156Z,98.34
2023-02-03T12:57:46.036Z,98.27
2023-02-03T13:01:20.931Z,98.07
2023-02-03T13:04:30.525Z,98.03
2023-02-03T13:07:49.129Z,98.12
2023-02-03T13:11:10.312Z,98.13
2023-02-03T13:14:24.939Z,98.30
2023-02-03T13:17:43.109Z,98.95
2023-02-03T13:20:49.962Z,98.70
2023-02-03T13:23:59.886Z,98.95
2023-02-03T13:27:24.357Z,98.82
2023-02-03T13:30:47.633Z,98.97
2023-02-03T13:34:13.904Z,99.11
2023-02-03T13:37:42.788Z,99.36
2023-02-03T13:41:04.047Z,99.26
2023-02-03T13:44:23.271Z,99.34
2023-02-03T13:47:37.965Z,99.35
2023-02-03T13:50:47.997Z,99.43
2023-02-03T13:54:03.498Z,99.74
2023-02-03T13:57:24.149Z,99.82
2023-02-03T14:01:06.002Z,99.83
2023-02-03T14:04:25.569Z,100.00
2023-02-03T14:07:44.855Z,100.00
2023-02-03T14:11:33.101Z,100.00
2023-02-03T14:14:40.306Z,100.00
2023-02-03T14:17:52.571Z,100.00
2023-02-03T14:21:44.751Z,100.00
2023-02-03T14:25:04.492Z,100.00
2023-02-03T14:28:19.064Z,100.00
2023-02-03T14:31:35.097Z,100.00
2023-02-03T14:34:51.308Z,100.00
2023-02-03T14:38:18.041Z,100.00
2023-02-03T14:41:51.599Z,100.00
2023-02-03T14:45:46.214Z,100.00
2023-02-03T14:49:14.312Z,100.00
2023-02-03T14:52:41.295Z,100.00
2023-02-03T14:56:17.105Z,100.00
2023-02-03T14:59:26.059Z,100.00
2023-02-03T15:02:36.988Z,100.00
2023-02-03T15:05:48.995Z,100.00
2023-02-03T15:09:00.975Z,100.00
2023-02-03T15:12:30.871Z,100.00
2023-02-03T15:15:40.263Z,100.00
2023-02-03T15:19:13.824Z,100.00
2023-02-03T15:22:27.958Z,100.00
2023-02-03T15:25:33.453Z,100.00
2023-02-03T15:29:02.933Z,100.00
2023-02-03T15:32:13.209Z,100.00
2023-02-03T15:35:23.999Z,100.00
2023-02-03T15:38:58.941Z,100.00
2023-02-03T15:42:08.415Z,100.00
2023-02-03T15:45:32.499Z,100.00
2023-02-03T15:48:51.179Z,100.00
2023-02-03T15:52:08.973Z,100.00
2023-02-03T15:55:33.065Z,100.00
2023-02-03T15:58:47.293Z,100.00
2023-02-03T16:02:00.968Z,100.00
2023-02-03T16:05:36.846Z,100.00
2023-02-03T16:08:54.841Z,100.00
2023-02-03T16:12:24.907Z,100.00
2023-02-03T16:15:46.982Z,100.00
2023-02-03T16:19:11.859Z,100.00
2023-02-03T16:22:33.930Z,100.00
2023-02-03T16:26:07.283Z,100.00
2023-02-03T16:29:42.856Z,100.00
2023-02-03T16:33:40.955Z,100.00
2023-02-03T16:37:12.827Z,100.00
2023-02-03T16:40:44.051Z,100.00
2023-02-03T16:44:16.185Z,100.00
2023-02-03T16:47:52.117Z,100.00
2023-02-03T16:51:19.927Z,100.00
2023-02-03T16:54:28.905Z,100.00
2023-02-03T16:57:34.112Z,100.00
2023-02-03T17:00:47.745Z,100.00
2023-02-03T17:04:02.822Z,100.00
2023-02-03T17:07:14.965Z,100.00
2023-02-03T17:10:29.851Z,100.00
2023-02-03T17:13:36.946Z,100.00
2023-02-03T17:16:47.983Z,100.00
2023-02-03T17:19:53.334Z,100.00
2023-02-03T17:23:17.843Z,100.00
2023-02-03T17:26:23.180Z,100.00
2023-02-03T17:29:35.831Z,100.00
2023-02-03T17:32:48.467Z,100.00
2023-02-03T17:36:08.962Z,100.00
2023-02-03T17:53:22.447Z,99.85
2023-02-03T17:56:38.957Z,99.93
2023-02-03T18:00:00.840Z,100.00
2023-02-03T18:03:23.954Z,99.99
2023-02-03T18:06:40.906Z,99.88
2023-02-03T18:09:55.962Z,99.96
2023-02-03T18:13:10.759Z,100.00
2023-02-03T18:16:42.847Z,100.00
2023-02-03T18:19:55.789Z,100.00
2023-02-03T18:23:06.529Z,99.96
2023-02-03T18:26:19.316Z,100.00
2023-02-03T18:29:24.983Z,100.00
2023-02-03T18:32:47.377Z,100.00
2023-02-03T18:36:00.307Z,100.00
2023-02-03T18:39:21.924Z,100.00
2023-02-03T18:42:39.899Z,100.00
2023-02-03T18:45:49.355Z,100.00
2023-02-03T18:49:05.916Z,100.00
2023-02-03T18:52:16.919Z,100.00
2023-02-03T18:55:23.445Z,100.00
2023-02-03T18:58:45.000Z,100.00
2023-02-03T19:02:02.745Z,100.00
2023-02-03T19:05:14.376Z,100.00
2023-02-03T19:08:22.289Z,100.00
2023-02-03T19:11:27.760Z,100.00
2023-02-03T19:14:43.089Z,100.00
2023-02-03T19:17:50.954Z,100.00
2023-02-03T19:20:54.716Z,100.00
2023-02-03T19:24:01.417Z,100.00
2023-02-03T19:27:12.316Z,100.00
2023-02-03T19:30:24.796Z,100.00
2023-02-03T19:33:35.222Z,99.71
2023-02-03T19:36:42.720Z,99.02
2023-02-03T19:39:56.838Z,98.62
2023-02-03T19:43:14.903Z,98.20
2023-02-03T19:46:27.807Z,97.60
2023-02-03T19:49:39.933Z,97.43
2023-02-03T19:52:44.928Z,97.45
2023-02-03T19:55:59.414Z,97.75
2023-02-03T19:59:03.381Z,97.74
2023-02-03T20:02:14.856Z,97.69
2023-02-03T20:05:20.954Z,97.44
2023-02-03T20:08:35.043Z,97.22
2023-02-03T20:11:44.909Z,97.06
2023-02-03T20:14:57.894Z,97.05
2023-02-03T20:18:10.933Z,97.04
2023-02-03T20:21:22.821Z,97.20
2023-02-03T20:24:35.129Z,97.30
2023-02-03T20:27:55.009Z,97.30
2023-02-03T20:31:03.036Z,97.36
2023-02-03T20:34:08.964Z,97.42
2023-02-03T20:37:17.647Z,97.54
2023-02-03T20:40:30.312Z,97.42
2023-02-03T20:43:36.170Z,96.87
2023-02-03T20:46:40.649Z,96.15
2023-02-03T20:49:52.859Z,95.38
2023-02-03T20:52:57.595Z,94.64
2023-02-03T20:56:11.968Z,94.47
2023-02-03T20:59:18.062Z,93.91
2023-02-03T21:03:03.030Z,93.59
2023-02-03T21:06:31.869Z,93.28
2023-02-03T21:09:43.201Z,92.56
2023-02-03T21:12:48.537Z,92.46
2023-02-03T21:16:06.940Z,92.27
2023-02-03T21:19:24.876Z,91.56
2023-02-03T21:22:33.921Z,91.38
2023-02-03T21:25:38.670Z,90.63
2023-02-03T21:28:43.019Z,90.77
2023-02-03T21:31:48.063Z,90.30
2023-02-03T21:34:53.181Z,90.32
2023-02-03T21:38:34.127Z,90.06
2023-02-03T21:41:45.804Z,89.79
2023-02-03T21:44:55.770Z,89.82
2023-02-03T21:48:00.706Z,89.15
2023-02-03T21:51:21.187Z,89.59
2023-02-03T21:54:33.934Z,89.51
2023-02-03T21:57:47.766Z,89.45
2023-02-03T22:00:56.359Z,89.18
2023-02-03T22:04:02.352Z,88.80
2023-02-03T22:07:15.942Z,88.58
2023-02-03T22:10:19.532Z,87.96
2023-02-03T22:13:22.821Z,87.44
2023-02-03T22:16:29.487Z,87.50
2023-02-03T22:19:34.880Z,87.10
2023-02-03T22:22:39.873Z,87.25
2023-02-03T22:25:44.172Z,87.55
2023-02-03T22:28:49.976Z,87.56
2023-02-03T22:31:53.958Z,87.84
2023-02-03T22:35:02.945Z,87.72
2023-02-03T22:38:09.076Z,87.90
2023-02-03T22:41:13.186Z,88.44
2023-02-03T22:44:18.488Z,88.75
2023-02-03T22:47:25.122Z,88.86
2023-02-03T22:50:35.692Z,88.69
2023-02-03T22:53:41.044Z,88.04
2023-02-03T22:56:44.069Z,87.84
2023-02-03T22:59:52.609Z,88.03
2023-02-03T23:02:56.410Z,88.06
2023-02-03T23:05:59.709Z,88.24
2023-02-03T23:09:03.862Z,88.63
2023-02-03T23:12:10.846Z,88.77
2023-02-03T23:15:21.890Z,88.79
2023-02-03T23:18:25.612Z,88.94
2023-02-03T23:21:28.444Z,89.19
2023-02-03T23:24:34.613Z,89.24
2023-02-03T23:27:38.781Z,89.34
2023-02-03T23:30:42.535Z,89.03
2023-02-03T23:34:05.144Z,89.69
2023-02-03T23:37:10.867Z,90.11
2023-02-03T23:40:16.221Z,90.18
2023-02-03T23:43:19.144Z,90.49
2023-02-03T23:46:21.881Z,90.77
2023-02-03T23:49:25.293Z,90.80
2023-02-03T23:52:35.904Z,90.92
2023-02-03T23:55:39.555Z,90.89
2023-02-03T23:58:42.855Z,90.64
